Terminal Aerodrome Forecast
Issued by NWS Greer, SC

Home | Current Version | Previous Version | Text Only | Print | Product List | Glossary On
Versions: 1 2 3 4 5 6 7 8 9 10 11 12 13 14 15 16 17 18 19 20 21 22 23 24 25 26 27 28
000
FTUS42 KGSP 190803 AAA
TAFGSP
TAF AMD
KGSP 190803Z 1908/2006 05004KT P6SM VCSH SCT005 OVC050
      TEMPO 1909/1913 5SM SHRA BR OVC008
     FM191300 10010KT 2SM SHRA BR VCTS OVC003CB
     FM191900 15008KT 1 1/2SM SHRA BR VCTS OVC003CB
     FM192100 19009KT 3SM SHRA BR VCTS OVC003CB
     FM192300 21009KT 4SM SHRA BR OVC008 PROB30 1923/2004 2SM TSRA
      OVC008CB
     FM200400 21010G18KT 6SM BR OVC008=

USA.gov is the U.S. government's official web portal to all federal, state and local government web resources and services.